Virtual United States Air Force

 METAR AND TAF INFORMATION
METAR FOR RODN
ADDS - METARS form results

(1500 UTC 23 April 2019)
Data provider http://aviationweather.gov/metar/data/
 
METAR text: RODN 231456Z AUTO 20008KT 10SM FEW010 25/24 A2989 RMK AO2 SLP127 T02480236 402840229 50014 $
Conditions at: RODN (KADENA (USAFB-NA, JP) observed 1456 UTC 23 April 2019
Temperature: 24.8°C (77°F)
Dewpoint: 23.6°C (74°F) [RH = 93%]
Pressure (altimeter): 29.89 inches Hg (1012.3 mb)
[Sea-level pressure: 1012.7 mb]
Winds: from the SSW (200 degrees) at 9 MPH (8 knots; 4.1 m/s)
Visibility: 10 or more miles (16+ km)
Ceiling: at least 12,000 feet AGL
Clouds: few clouds at 1000 feet AGL
Weather:
SOME DATA ABOVE MAY BE INACCURATE!!!
"$" is an indication the sensor requires maintenance

METAR text: RODN 231426Z AUTO 20009KT 10SM SCT009 25/24 A2989 RMK AO2 SLP127 $
Conditions at: RODN (KADENA (USAFB-NA, JP) observed 1426 UTC 23 April 2019
Temperature: 25.0°C (77°F)
Dewpoint: 24.0°C (75°F) [RH = 94%]
Pressure (altimeter): 29.89 inches Hg (1012.3 mb)
[Sea-level pressure: 1012.7 mb]
Winds: from the SSW (200 degrees) at 10 MPH (9 knots; 4.6 m/s)
Visibility: 10 or more miles (16+ km)
Ceiling: at least 12,000 feet AGL
Clouds: scattered clouds at 900 feet AGL
Weather:
SOME DATA ABOVE MAY BE INACCURATE!!!
"$" is an indication the sensor requires maintenance

METAR text: RODN 231416Z AUTO 20010KT 10SM BKN009 25/24 A2989 RMK AO2 CIG 008 RWY05 SLP127 $
Conditions at: RODN (KADENA (USAFB-NA, JP) observed 1416 UTC 23 April 2019
Temperature: 25.0°C (77°F)
Dewpoint: 24.0°C (75°F) [RH = 94%]
Pressure (altimeter): 29.89 inches Hg (1012.3 mb)
[Sea-level pressure: 1012.7 mb]
Winds: from the SSW (200 degrees) at 12 MPH (10 knots; 5.1 m/s)
Visibility: 10 or more miles (16+ km)
Ceiling: 900 feet AGL
Clouds: broken clouds at 900 feet AGL
Weather:
SOME DATA ABOVE MAY BE INACCURATE!!!
"$" is an indication the sensor requires maintenance

METAR text: RODN 231406Z AUTO 20010KT 10SM BKN010 25/24 A2989 RMK AO2 BKN V FEW CIG 009 RWY05 SLP127 $
Conditions at: RODN (KADENA (USAFB-NA, JP) observed 1406 UTC 23 April 2019
Temperature: 25.0°C (77°F)
Dewpoint: 24.0°C (75°F) [RH = 94%]
Pressure (altimeter): 29.89 inches Hg (1012.3 mb)
[Sea-level pressure: 1012.7 mb]
Winds: from the SSW (200 degrees) at 12 MPH (10 knots; 5.1 m/s)
Visibility: 10 or more miles (16+ km)
Ceiling: 1000 feet AGL
Clouds: broken clouds at 1000 feet AGL
Weather:
SOME DATA ABOVE MAY BE INACCURATE!!!
"$" is an indication the sensor requires maintenance

Forecast for: RODN (KADENA (USAFB-NA, JP)
Text: TAF RODN 230800Z 2308/2414 21012KT 9999 SCT015 BKN020 QNH2979INS TX30/2406Z TN24/2321Z
Forecast period: 0800 UTC 23 April 2019 to 1400 UTC 24 April 2019
Forecast type: FROM: standard forecast or significant change
Winds: from the SSW (210 degrees) at 14 MPH (12 knots; 6.2 m/s)
Visibility: 6 or more miles 10+ km)
Ceiling: 2000 feet AGL
Clouds: scattered clouds at 1500 feet AGL
broken clouds at 2000 feet AGL
Weather: no significant weather forecast for this period

 AIRPORT MAP

 RUNWAY INFORMATION
Runway 05L Runway length 12100 ft Runway width 300 ft
Runway elevation 63 ft Runway displaced threshold 0 ft Runway heading 51
Runway 23R Runway length 12100 ft Runway width 300 ft
Runway elevation 128 ft Runway displaced threshold 0 ft Runway heading 231
Runway 05R Runway length 12100 ft Runway width 200 ft
Runway elevation 74 ft Runway displaced threshold 0 ft Runway heading 51
Runway 23L Runway length 12100 ft Runway width 200 ft
Runway elevation 133 ft Runway displaced threshold 0 ft Runway heading 231

 AIRPORT FREQUENCIES
Type A/D Name OKINAWA AP Frequency 33.58 MHZ
Type ATIS Name ATIS Frequency 124.2 MHZ
Type CLD Name CLNC DEL Frequency 123.3 MHZ
Type GND Name GND CTL Frequency 118.5 MHZ
Type MISC Name AIR MOBILI Frequency 128 MHZ
Type OPS Name BASE OPS Frequency 26.6 MHZ
Type PMSV Name METRO Frequency 34.46 MHZ
Type POST Name 18 WG COMD Frequency 31.1 MHZ
Type PTD Name PTD Frequency 131.4 MHZ
Type TWR Name TWR Frequency 126.2 MHZ

 AIRPORT NEAR NAVIGATION AIDS


Neither the Department of the Air Force, nor any other component of the Department of Defense or Federal Government has approved, endorsed, or authorized this promotion, activity, or organization. Virtual United States Air Force organization is in no way affiliated with the Department of Defense, Department of the Air Force, or any other federal or government entity. Virtual United States Air Force is a group of flight simulation enthusiasts with the common interest of promoting enjoyment and cameraderie through the simulation of military operations and procedures utilizing several flight simulation platforms.

Copyright © vUSAF, LLC // 2018 All Rights Reserved